METAR Data
IDs: Format: Raw Decoded Include TAF

Data at: 1528 UTC 24 Aug 2019

PANC 241453Z 16003KT 10SM FEW080 SCT200 09/06 A2963 RMK AO2 SLP035 T00890061 51011
PANC 241353Z 00000KT 10SM SCT080 09/06 A2962 RMK AO2 SLP031 T00890056
PANC 241253Z 32003KT 10SM OVC080 10/05 A2961 RMK AO2 SLP029 T01000050
PANC 241153Z 33007KT 10SM BKN090 11/05 A2960 RMK AO2 SLP024 T01110050 10156 20100 52008
PANC 241053Z 36005KT 10SM SCT095 12/03 A2959 RMK AO2 SLP021 T01220028
PANC 240953Z 03005KT 10SM SCT095 13/03 A2958 RMK AO2 SLP018 T01280028
PANC 240853Z 34004KT 10SM CLR 13/04 A2957 RMK AO2 SLP015 T01330039 402000100 51013
PANC 240753Z 00000KT 10SM SCT075 11/07 A2956 RMK AO2 SLP012 T01110072
PANC 240653Z 00000KT 10SM SCT075 12/08 A2955 RMK AO2 SLP007 T01220078
PANC 240553Z 21003KT 10SM SCT060 13/08 A2954 RMK AO2 SLP002 T01280078 10200 20128 53008
PANC 240453Z 00000KT 7SM FEW030 SCT200 17/08 A2953 RMK AO2 SLP999 T01670083
PANC 240353Z 22004KT 7SM FEW028 SCT200 18/09 A2951 RMK AO2 SLP994 CB DSNT NW DSIPT T01830094
PANC 240253Z 24007KT 7SM FEW028 SCT200 19/08 A2951 RMK AO2 SLP994 CB DSNT NW T01890083 58003
PANC 240153Z 28005KT 6SM FU FEW028 SCT200 19/08 A2952 RMK AO2 SLP995 CB DSNT NW T01940078
PANC 240053Z 22009KT 6SM FU FEW028 SCT200 19/08 A2952 RMK AO2 SLP996 TCU DSNT NW T01890083
PANC 232353Z 23006KT 6SM FU FEW028 SCT200 18/09 A2952 RMK AO2 SLP997 T01830089 10200 20139 58007
PANC 232253Z 26007KT 6SM FU FEW028 SCT200 19/09 A2953 RMK AO2 SLP000 T01890094
PANC 232153Z VRB03KT 6SM FU FEW025 FEW080 BKN200 19/09 A2954 RMK AO2 SLP002 T01890094
PANC 232053Z 27005KT 5SM FU FEW023 FEW080 BKN200 17/10 A2954 RMK AO2 SLP004 T01670100 58003
PANC 231953Z 28004KT 4SM FU FEW020 SCT080 BKN200 17/11 A2955 RMK AO2 SLP006 T01720106
PANC 231853Z 26004KT 3SM FU FEW000 SCT014 BKN080 BKN200 16/10 A2955 RMK AO2 SFC VIS 4 SLP007 FU FEW000 T01560100
PANC 231832Z 26004KT 3SM FU FEW000 SCT014 BKN080 BKN200 15/10 A2955 RMK AO2 SFC VIS 4 FU FEW000 T01500100
PANC 231753Z 22005KT 2 1/2SM FU FEW000 SCT014 BKN095 BKN200 14/09 A2955 RMK AO2 TWR VIS 3 SLP008 FU FEW000 T01390089 10144 20122 58001
PANC 231653Z 23004KT 2SM FU FEW000 FEW014 BKN100 BKN200 13/07 A2956 RMK AO2 SFC VIS 2 1/2 SLP009 FU FEW000 T01330072
PANC 231617Z 19003KT 2 1/2SM FU FEW000 FEW012 BKN100 BKN200 13/07 A2955 RMK AO2 TWR VIS 3 FU FEW000 FU FEW012 T01280072
PANC 231607Z 19004KT 3SM FU FEW000 FEW012 BKN100 BKN200 13/07 A2956 RMK AO2 FU FEW000 FU FEW012 T01280067
PANC 231553Z VRB03KT 2SM FU FEW000 BKN100 BKN220 12/07 A2956 RMK AO2 TWR VIS 3 SLP009 FU FEW000 T01220067
PANC 231453Z 21008KT 2SM FU SCT000 BKN100 BKN220 12/06 A2956 RMK AO2 SLP009 FU SCT000 T01220061 53006
PANC 231353Z 20008KT 2SM FU SCT000 BKN070 13/06 A2955 RMK AO2 SLP006 FU SCT000 T01280061
PANC 231253Z 20009KT 2SM FU SCT000 13/07 A2954 RMK AO2 SLP004 FU SCT000 T01280072
PANC 231248Z 20007KT 2SM FU SCT000 13/07 A2954 RMK AO2 FU SCT000
PANC 231153Z 18009KT 5SM FU FEW000 12/08 A2954 RMK AO2 SLP003 FU FEW000 T01220083 10144 20106 58004
PANC 231103Z 17008KT 2SM FU SCT000 12/08 A2955 RMK AO2 FU SCT000 T01220078
PANC 231053Z 16010KT 1 3/4SM FU SCT000 12/07 A2955 RMK AO2 SLP006 FU SCT000 T01220072
PANC 231047Z 16009KT 1 3/4SM FU SCT000 12/07 A2955 RMK AO2 FU SCT000
PANC 231030Z 16009KT 1 3/4SM FU SCT000 BKN010 13/06 A2955 RMK AO2 FU SCT000 T01280061
PANC 231027Z 16009KT 1 3/4SM OVC010 13/06 A2955 RMK AO2 T01280061
PANC 231017Z 16009KT 2SM BKN010 13/06 A2955 RMK AO2 T01280061
PANC 230953Z 17007KT 10SM CLR 13/08 A2955 RMK AO2 SLP008 T01280078
PANC 230853Z 17006KT 10SM CLR 13/07 A2955 RMK AO2 SLP008 T01280072 402060078 53001
PANC 230753Z 17005KT 10SM FEW200 11/06 A2955 RMK AO2 SLP007 T01110061
PANC 230653Z 17006KT 10SM FEW200 14/07 A2955 RMK AO2 SLP006 T01390067
PANC 230553Z 17005KT 10SM FEW200 14/07 A2955 RMK AO2 SLP006 T01390067 10200 20139 56004
PANC 230453Z 17006KT 10SM FEW200 16/06 A2955 RMK AO2 SLP007 T01610056
PANC 230353Z VRB04KT 10SM FEW060 SCT200 18/04 A2955 RMK AO2 SLP008 T01830044